createdAt,value
2023-05-27T00:00:42.262Z,2.80
2023-05-27T00:01:41.951Z,2.40
2023-05-27T00:02:42.005Z,2.50
2023-05-27T00:03:42.045Z,2.50
2023-05-27T00:04:41.899Z,3.00
2023-05-27T00:05:41.873Z,2.60
2023-05-27T00:06:41.893Z,3.20
2023-05-27T00:07:41.830Z,2.70
2023-05-27T00:08:41.829Z,2.80
2023-05-27T00:09:41.811Z,2.90
2023-05-27T00:10:41.787Z,2.50
2023-05-27T00:11:41.786Z,3.00
2023-05-27T00:12:41.801Z,2.80
2023-05-27T00:13:41.762Z,2.50
2023-05-27T00:14:41.747Z,2.50
2023-05-27T00:15:41.744Z,2.90
2023-05-27T00:16:41.769Z,2.70
2023-05-27T00:17:41.740Z,2.80
2023-05-27T00:18:41.743Z,2.60
2023-05-27T00:19:41.677Z,2.80
2023-05-27T00:20:41.703Z,2.60
2023-05-27T00:21:41.658Z,2.70
2023-05-27T00:22:41.713Z,2.40
2023-05-27T00:23:41.624Z,2.30
2023-05-27T00:24:41.664Z,2.80
2023-05-27T00:25:41.600Z,2.60
2023-05-27T00:26:41.584Z,2.70
2023-05-27T00:27:41.608Z,3.00
2023-05-27T00:28:41.607Z,2.90
2023-05-27T00:29:41.549Z,2.80
2023-05-27T00:30:41.565Z,2.30
2023-05-27T00:31:41.619Z,2.20
2023-05-27T00:32:41.570Z,2.50
2023-05-27T00:33:41.490Z,3.10
2023-05-27T00:34:41.484Z,2.80
2023-05-27T00:35:41.537Z,2.60
2023-05-27T00:36:41.448Z,2.50
2023-05-27T00:37:41.442Z,2.50
2023-05-27T00:38:41.474Z,3.50
2023-05-27T00:39:41.409Z,2.60
2023-05-27T00:40:41.446Z,2.70
2023-05-27T00:41:41.387Z,2.90
2023-05-27T00:42:41.380Z,3.30
2023-05-27T00:43:41.369Z,2.70
2023-05-27T00:44:41.355Z,3.40
2023-05-27T00:45:41.407Z,2.90
2023-05-27T00:46:41.383Z,2.40
2023-05-27T00:47:41.335Z,2.70
2023-05-27T00:48:41.308Z,2.70
2023-05-27T00:49:42.245Z,2.70
2023-05-27T00:50:41.291Z,2.50
2023-05-27T00:51:41.287Z,2.50
2023-05-27T00:52:41.261Z,2.80
2023-05-27T00:53:41.259Z,2.70
2023-05-27T00:54:41.226Z,2.90
2023-05-27T00:55:41.220Z,2.90
2023-05-27T00:56:41.252Z,2.90
2023-05-27T00:57:41.260Z,3.10
2023-05-27T00:58:41.186Z,2.80
2023-05-27T00:59:41.149Z,2.60
2023-05-27T01:00:41.142Z,3.00
2023-05-27T01:01:41.199Z,3.10
2023-05-27T01:02:41.218Z,2.60
2023-05-27T01:03:41.378Z,2.80
2023-05-27T01:04:41.104Z,2.60
2023-05-27T01:05:41.085Z,3.20
2023-05-27T01:06:41.052Z,2.70
2023-05-27T01:07:41.040Z,3.00
2023-05-27T01:08:41.033Z,2.70
2023-05-27T01:09:41.076Z,2.50
2023-05-27T01:10:41.010Z,2.80
2023-05-27T01:11:40.993Z,3.10
2023-05-27T01:12:41.008Z,3.30
2023-05-27T01:13:40.985Z,2.70
2023-05-27T01:14:40.987Z,2.70
2023-05-27T01:15:40.951Z,2.80
2023-05-27T01:16:40.948Z,3.00
2023-05-27T01:17:40.990Z,2.30
2023-05-27T01:18:40.920Z,2.90
2023-05-27T01:19:40.935Z,2.90
2023-05-27T01:20:40.940Z,2.70
2023-05-27T01:21:40.870Z,2.80
2023-05-27T01:22:40.853Z,2.80
2023-05-27T01:23:40.840Z,2.90
2023-05-27T01:24:40.835Z,3.00
2023-05-27T01:25:40.879Z,2.70
2023-05-27T01:26:40.796Z,3.00
2023-05-27T01:27:40.794Z,3.00
2023-05-27T01:28:40.768Z,2.60
2023-05-27T01:29:40.809Z,3.00
2023-05-27T01:30:40.779Z,2.90
2023-05-27T01:31:40.814Z,3.20
2023-05-27T01:32:40.759Z,2.90
2023-05-27T01:33:40.708Z,2.70
2023-05-27T01:34:40.695Z,3.00
2023-05-27T01:35:40.681Z,3.20
2023-05-27T01:36:40.699Z,3.00
2023-05-27T01:37:40.654Z,2.70
2023-05-27T01:38:40.671Z,3.60
2023-05-27T01:39:40.643Z,2.90
2023-05-27T01:40:40.622Z,3.20
2023-05-27T01:41:40.609Z,3.20
2023-05-27T01:42:40.622Z,2.90
2023-05-27T01:43:40.587Z,3.60
2023-05-27T01:44:40.553Z,3.00
2023-05-27T01:45:40.560Z,3.70
2023-05-27T01:46:40.564Z,3.00
2023-05-27T01:47:40.582Z,3.10
2023-05-27T01:48:40.510Z,3.10
2023-05-27T01:49:40.487Z,3.20
2023-05-27T01:50:40.475Z,3.40
2023-05-27T01:51:40.489Z,3.30
2023-05-27T01:52:40.457Z,3.30
2023-05-27T01:53:40.474Z,3.10
2023-05-27T01:54:40.426Z,2.90
2023-05-27T01:55:40.400Z,2.90
2023-05-27T01:56:40.399Z,3.30
2023-05-27T01:57:40.384Z,3.10
2023-05-27T01:58:40.372Z,2.70
2023-05-27T01:59:40.414Z,2.50
2023-05-27T02:00:40.369Z,3.10
2023-05-27T02:01:40.355Z,3.20
2023-05-27T02:02:40.402Z,3.00
2023-05-27T02:03:40.352Z,3.30
2023-05-27T02:04:40.291Z,3.10
2023-05-27T02:05:40.364Z,3.30
2023-05-27T02:06:40.285Z,3.30
2023-05-27T02:07:40.253Z,3.20
2023-05-27T02:08:40.241Z,3.30
2023-05-27T02:09:40.228Z,2.80
2023-05-27T02:10:40.235Z,3.60
2023-05-27T02:11:40.199Z,3.00
2023-05-27T02:12:40.186Z,3.40
2023-05-27T02:13:40.171Z,3.30
2023-05-27T02:14:40.187Z,3.00
2023-05-27T02:15:40.169Z,3.10
2023-05-27T02:16:40.170Z,3.10
2023-05-27T02:17:40.198Z,3.10
2023-05-27T02:18:40.119Z,3.20
2023-05-27T02:19:40.090Z,3.40
2023-05-27T02:20:40.135Z,3.40
2023-05-27T02:21:40.089Z,2.90
2023-05-27T02:22:40.055Z,3.30
2023-05-27T02:23:40.039Z,2.90
2023-05-27T02:24:40.050Z,2.60
2023-05-27T02:25:40.037Z,4.20
2023-05-27T02:26:40.005Z,3.00
2023-05-27T02:27:40.020Z,3.00
2023-05-27T02:28:39.983Z,3.30
2023-05-27T02:29:39.961Z,3.30
2023-05-27T02:30:40.002Z,2.90
2023-05-27T02:31:39.981Z,3.50
2023-05-27T02:32:39.998Z,2.80
2023-05-27T02:33:39.949Z,3.20
2023-05-27T02:34:39.918Z,3.00
2023-05-27T02:35:39.894Z,2.80
2023-05-27T02:36:39.883Z,3.30
2023-05-27T02:37:39.879Z,3.30
2023-05-27T02:38:39.848Z,3.30
2023-05-27T02:39:39.863Z,3.90
2023-05-27T02:40:39.837Z,3.60
2023-05-27T02:41:39.812Z,3.60
2023-05-27T02:42:39.814Z,3.30
2023-05-27T02:43:39.782Z,3.80
2023-05-27T02:44:39.769Z,3.20
2023-05-27T02:45:39.792Z,3.40
2023-05-27T02:46:39.835Z,3.20
2023-05-27T02:47:39.811Z,3.10
2023-05-27T02:48:39.740Z,3.50
2023-05-27T02:49:39.714Z,3.30
2023-05-27T02:50:39.695Z,3.40
2023-05-27T02:51:39.697Z,3.40
2023-05-27T02:52:39.699Z,3.50
2023-05-27T02:53:39.661Z,3.60
2023-05-27T02:54:39.649Z,3.40
2023-05-27T02:55:39.654Z,2.70
2023-05-27T02:56:39.610Z,3.40
2023-05-27T02:57:39.624Z,3.20
2023-05-27T02:58:39.584Z,3.90
2023-05-27T02:59:39.571Z,3.60
2023-05-27T03:00:39.558Z,3.20
2023-05-27T03:01:39.577Z,3.30
2023-05-27T03:02:39.597Z,3.30
2023-05-27T03:03:39.606Z,3.30
2023-05-27T03:04:39.499Z,3.30
2023-05-27T03:05:39.496Z,3.50
2023-05-27T03:06:39.498Z,3.80
2023-05-27T03:07:39.455Z,3.80
2023-05-27T03:08:39.459Z,3.50
2023-05-27T03:09:39.492Z,3.10
2023-05-27T03:10:39.469Z,3.70
2023-05-27T03:11:39.400Z,3.40
2023-05-27T03:12:39.402Z,3.50
2023-05-27T03:13:39.382Z,3.60
2023-05-27T03:14:39.364Z,3.70
2023-05-27T03:15:39.412Z,3.50
2023-05-27T03:16:39.336Z,4.30
2023-05-27T03:17:39.344Z,3.50
2023-05-27T03:18:39.316Z,3.20
2023-05-27T03:19:39.304Z,3.30
2023-05-27T03:20:39.351Z,3.00
2023-05-27T03:21:39.285Z,3.90
2023-05-27T03:22:39.263Z,3.80
2023-05-27T03:23:39.244Z,3.80
2023-05-27T03:24:39.252Z,3.40
2023-05-27T03:25:39.277Z,3.50
2023-05-27T03:26:39.241Z,3.30
2023-05-27T03:27:39.209Z,3.50
2023-05-27T03:28:39.185Z,3.50
2023-05-27T03:29:39.173Z,3.70
2023-05-27T03:30:39.193Z,3.30
2023-05-27T03:31:39.188Z,3.40
2023-05-27T03:32:39.204Z,3.60
2023-05-27T03:33:39.135Z,3.40
2023-05-27T03:34:39.111Z,3.30
2023-05-27T03:35:39.096Z,4.00
2023-05-27T03:36:39.124Z,3.80
2023-05-27T03:37:39.053Z,3.80
2023-05-27T03:38:39.060Z,3.60
2023-05-27T03:39:39.077Z,3.40
2023-05-27T03:40:39.049Z,3.20
2023-05-27T03:41:39.038Z,3.70
2023-05-27T03:42:39.040Z,3.40
2023-05-27T03:43:38.990Z,3.70
2023-05-27T03:44:38.981Z,3.60
2023-05-27T03:45:39.037Z,4.50
2023-05-27T03:46:39.011Z,3.60
2023-05-27T03:47:38.989Z,3.90
2023-05-27T03:48:38.944Z,3.80
2023-05-27T03:49:38.910Z,3.70
2023-05-27T03:50:39.177Z,3.50
2023-05-27T03:51:38.888Z,3.40
2023-05-27T03:52:38.880Z,3.40
2023-05-27T03:53:38.886Z,3.20
2023-05-27T03:54:38.867Z,3.70
2023-05-27T03:55:38.891Z,3.90
2023-05-27T03:56:38.820Z,4.50
2023-05-27T03:57:38.810Z,3.80
2023-05-27T03:58:38.782Z,3.50
2023-05-27T03:59:38.837Z,3.60
2023-05-27T04:00:38.769Z,3.80
2023-05-27T04:01:38.763Z,3.50
2023-05-27T04:02:38.894Z,3.70
2023-05-27T04:03:38.790Z,3.50
2023-05-27T04:04:38.804Z,3.50
2023-05-27T04:05:38.738Z,3.50
2023-05-27T04:06:38.682Z,3.80
2023-05-27T04:07:38.680Z,3.60
2023-05-27T04:08:38.647Z,3.80
2023-05-27T04:09:38.694Z,3.80
2023-05-27T04:10:38.791Z,3.70
2023-05-27T04:11:38.634Z,3.60
2023-05-27T04:12:38.603Z,3.30
2023-05-27T04:13:38.596Z,3.60
2023-05-27T04:14:38.584Z,4.30
2023-05-27T04:15:38.593Z,3.20
2023-05-27T04:16:38.811Z,3.80
2023-05-27T04:17:38.607Z,4.10
2023-05-27T04:18:38.538Z,4.00
2023-05-27T04:19:38.559Z,4.10
2023-05-27T04:20:38.582Z,3.70
2023-05-27T04:21:38.537Z,3.90
2023-05-27T04:22:38.473Z,4.20
2023-05-27T04:23:38.464Z,4.00
2023-05-27T04:24:38.458Z,4.30
2023-05-27T04:25:38.434Z,4.50
2023-05-27T04:26:38.444Z,4.10
2023-05-27T04:27:38.470Z,4.30
2023-05-27T04:28:38.393Z,4.10
2023-05-27T04:29:38.380Z,3.50
2023-05-27T04:30:38.361Z,4.20
2023-05-27T04:31:38.375Z,4.30
2023-05-27T04:32:38.357Z,4.00
2023-05-27T04:33:38.359Z,3.80
2023-05-27T04:34:38.317Z,4.10
2023-05-27T04:35:38.300Z,5.00
2023-05-27T04:36:38.292Z,4.00
2023-05-27T04:37:38.335Z,4.40
2023-05-27T04:38:38.263Z,3.90
2023-05-27T04:39:38.278Z,4.10
2023-05-27T04:40:38.240Z,3.70
2023-05-27T04:41:38.228Z,4.10
2023-05-27T04:42:38.211Z,4.30
2023-05-27T04:43:38.198Z,4.20
2023-05-27T04:44:38.185Z,3.80
2023-05-27T04:45:38.201Z,3.50
2023-05-27T04:46:38.150Z,3.80
2023-05-27T04:47:39.675Z,4.20
2023-05-27T04:48:38.129Z,4.10
2023-05-27T04:49:38.120Z,4.00
2023-05-27T04:50:38.145Z,3.90
2023-05-27T04:51:38.092Z,4.40
2023-05-27T04:52:38.074Z,3.90
2023-05-27T04:53:38.068Z,3.90
2023-05-27T04:54:38.066Z,4.40
2023-05-27T04:55:38.097Z,4.40
2023-05-27T04:56:38.039Z,4.40
2023-05-27T04:57:38.011Z,3.90
2023-05-27T04:58:37.996Z,4.40
2023-05-27T04:59:37.978Z,4.40
2023-05-27T05:00:37.996Z,4.20
2023-05-27T05:01:38.031Z,4.30
2023-05-27T05:02:37.983Z,4.50
2023-05-27T05:03:38.378Z,5.20
2023-05-27T05:04:37.910Z,4.70
2023-05-27T05:05:39.675Z,4.30
2023-05-27T05:06:37.926Z,4.20
2023-05-27T05:07:37.905Z,4.00
2023-05-27T05:08:37.862Z,4.50
2023-05-27T05:09:37.848Z,4.10
2023-05-27T05:10:37.849Z,4.80
2023-05-27T05:11:37.821Z,4.50
2023-05-27T05:12:37.853Z,4.60
2023-05-27T05:13:37.793Z,4.20
2023-05-27T05:14:37.783Z,4.60
2023-05-27T05:15:37.774Z,3.80
2023-05-27T05:16:37.782Z,4.00
2023-05-27T05:17:37.827Z,4.80
2023-05-27T05:18:37.825Z,5.10
2023-05-27T05:19:37.710Z,4.30
2023-05-27T05:20:37.770Z,4.30
2023-05-27T05:21:37.691Z,4.90
2023-05-27T05:22:37.681Z,4.20
2023-05-27T05:23:37.760Z,5.10
2023-05-27T05:24:37.657Z,5.30
2023-05-27T05:25:37.655Z,4.90
2023-05-27T05:26:37.626Z,4.70
2023-05-27T05:27:37.620Z,4.70
2023-05-27T05:28:37.603Z,4.70
2023-05-27T05:29:37.652Z,4.20
2023-05-27T05:30:37.586Z,4.50
2023-05-27T05:31:37.662Z,4.90
2023-05-27T05:32:37.574Z,4.60
2023-05-27T05:33:37.542Z,4.60
2023-05-27T05:34:37.709Z,4.80
2023-05-27T05:35:37.554Z,4.30
2023-05-27T05:36:37.506Z,4.50
2023-05-27T05:37:37.478Z,5.00
2023-05-27T05:38:37.495Z,4.70
2023-05-27T05:39:37.453Z,4.80
2023-05-27T05:40:37.448Z,5.00
2023-05-27T05:41:37.472Z,4.20
2023-05-27T05:42:37.418Z,4.80
2023-05-27T05:43:37.400Z,5.10
2023-05-27T05:44:37.386Z,4.40
2023-05-27T05:45:37.397Z,4.60
2023-05-27T05:46:37.473Z,4.20
2023-05-27T05:47:37.395Z,4.90
2023-05-27T05:48:37.336Z,4.90
2023-05-27T05:49:37.333Z,4.90
2023-05-27T05:50:37.318Z,4.80
2023-05-27T05:51:37.295Z,5.40
2023-05-27T05:52:37.357Z,5.00
2023-05-27T05:53:37.276Z,5.50
2023-05-27T05:54:37.260Z,4.70
2023-05-27T05:55:37.249Z,5.00
2023-05-27T05:56:37.224Z,4.60
2023-05-27T05:57:37.241Z,4.40
2023-05-27T05:58:37.533Z,4.90
2023-05-27T05:59:37.185Z,5.00
2023-05-27T06:00:37.186Z,5.40
2023-05-27T06:01:37.155Z,4.90
2023-05-27T06:02:37.292Z,4.50
2023-05-27T06:03:37.270Z,5.20
2023-05-27T06:04:37.177Z,4.70
2023-05-27T06:05:37.098Z,4.40
2023-05-27T06:06:37.098Z,4.50
2023-05-27T06:07:37.135Z,4.30
2023-05-27T06:08:37.082Z,4.40
2023-05-27T06:09:37.107Z,4.40
2023-05-27T06:10:37.054Z,4.60
2023-05-27T06:11:37.040Z,4.70
2023-05-27T06:12:37.020Z,3.70
2023-05-27T06:13:37.007Z,4.70
2023-05-27T06:14:37.034Z,4.40
2023-05-27T06:15:36.973Z,4.30
2023-05-27T06:16:37.122Z,4.90
2023-05-27T06:17:36.994Z,4.60
2023-05-27T06:18:36.937Z,4.00
2023-05-27T06:19:36.930Z,4.00
2023-05-27T06:20:37.059Z,4.40
2023-05-27T06:21:36.919Z,4.20
2023-05-27T06:22:36.888Z,3.90
2023-05-27T06:23:36.875Z,4.70
2023-05-27T06:24:36.888Z,4.40
2023-05-27T06:25:36.841Z,4.40
2023-05-27T06:26:36.877Z,4.30
2023-05-27T06:27:36.826Z,4.20
2023-05-27T06:28:36.813Z,5.00
2023-05-27T06:29:36.787Z,4.60
2023-05-27T06:30:36.806Z,4.30
2023-05-27T06:31:36.801Z,4.00
2023-05-27T06:32:36.796Z,3.90
2023-05-27T06:33:36.739Z,4.30
2023-05-27T06:34:36.724Z,4.20
2023-05-27T06:35:36.719Z,3.80
2023-05-27T06:36:36.716Z,4.50
2023-05-27T06:37:36.703Z,3.80
2023-05-27T06:38:36.717Z,3.40
2023-05-27T06:39:37.638Z,3.90
2023-05-27T06:40:36.700Z,4.40
2023-05-27T06:41:36.643Z,3.90
2023-05-27T06:42:36.635Z,3.60
2023-05-27T06:43:36.610Z,3.50
2023-05-27T06:44:36.677Z,4.20
2023-05-27T06:45:36.676Z,3.90
2023-05-27T06:46:36.685Z,4.10
2023-05-27T06:47:36.602Z,4.40
2023-05-27T06:48:36.557Z,3.70
2023-05-27T06:49:36.539Z,4.00
2023-05-27T06:50:36.552Z,3.80
2023-05-27T06:51:36.508Z,3.80
2023-05-27T06:52:36.484Z,4.00
2023-05-27T06:53:36.500Z,4.30
2023-05-27T06:54:36.470Z,3.80
2023-05-27T06:55:36.464Z,4.50
2023-05-27T06:56:36.475Z,3.80
2023-05-27T06:57:36.426Z,4.00
2023-05-27T06:58:36.440Z,4.20
2023-05-27T06:59:36.402Z,4.10
2023-05-27T07:00:36.478Z,4.40
2023-05-27T07:01:36.416Z,3.80
2023-05-27T07:02:36.621Z,3.30
2023-05-27T07:03:36.347Z,4.20
2023-05-27T07:04:36.351Z,4.20
2023-05-27T07:05:36.338Z,3.70
2023-05-27T07:06:36.300Z,3.70
2023-05-27T07:07:36.298Z,3.70
2023-05-27T07:08:36.378Z,3.50
2023-05-27T07:09:36.273Z,3.80
2023-05-27T07:10:36.259Z,3.50
2023-05-27T07:11:36.256Z,3.50
2023-05-27T07:12:36.221Z,3.80
2023-05-27T07:13:36.223Z,3.70
2023-05-27T07:14:36.246Z,3.20
2023-05-27T07:15:36.235Z,3.60
2023-05-27T07:16:36.222Z,3.90
2023-05-27T07:17:36.221Z,3.80
2023-05-27T07:18:36.138Z,3.50
2023-05-27T07:19:36.171Z,4.10
2023-05-27T07:20:36.156Z,3.60
2023-05-27T07:21:36.135Z,3.50
2023-05-27T07:22:36.087Z,3.70
2023-05-27T07:23:36.085Z,3.40
2023-05-27T07:24:36.156Z,3.10
2023-05-27T07:25:36.061Z,3.80
2023-05-27T07:26:36.051Z,3.70
2023-05-27T07:27:36.055Z,3.70
2023-05-27T07:28:36.042Z,4.00
2023-05-27T07:29:36.005Z,3.80
2023-05-27T07:30:36.013Z,3.50
2023-05-27T07:31:36.015Z,3.70
2023-05-27T07:32:35.995Z,4.60
2023-05-27T07:33:35.954Z,3.80
2023-05-27T07:34:35.974Z,3.50
2023-05-27T07:35:35.923Z,3.40
2023-05-27T07:36:35.917Z,4.10
2023-05-27T07:37:35.936Z,3.40
2023-05-27T07:38:35.888Z,3.80
2023-05-27T07:39:35.869Z,3.80
2023-05-27T07:40:35.854Z,4.30
2023-05-27T07:41:35.891Z,3.40
2023-05-27T07:42:35.832Z,3.40
2023-05-27T07:43:35.829Z,4.00
2023-05-27T07:44:35.806Z,3.90
2023-05-27T07:45:35.801Z,3.90
2023-05-27T07:46:35.830Z,3.40
2023-05-27T07:47:35.887Z,3.60
2023-05-27T07:48:35.759Z,3.80
2023-05-27T07:49:35.737Z,3.70
2023-05-27T07:50:35.761Z,3.50
2023-05-27T07:51:35.722Z,4.00
2023-05-27T07:52:35.734Z,3.10
2023-05-27T07:53:35.716Z,3.90
2023-05-27T07:54:43.634Z,3.30
2023-05-27T07:55:36.705Z,3.60
2023-05-27T07:56:35.672Z,3.70
2023-05-27T07:57:35.638Z,4.10
2023-05-27T07:58:35.660Z,3.80
2023-05-27T07:59:35.605Z,3.80
2023-05-27T08:00:35.677Z,3.30
2023-05-27T08:01:35.591Z,4.30
2023-05-27T08:02:35.770Z,3.40
2023-05-27T08:03:35.599Z,3.20
2023-05-27T08:04:35.724Z,3.60
2023-05-27T08:05:35.541Z,3.10
2023-05-27T08:06:35.528Z,3.10
2023-05-27T08:07:35.510Z,3.10
2023-05-27T08:08:35.538Z,3.30
2023-05-27T08:09:35.487Z,4.00
2023-05-27T08:10:35.484Z,3.50
2023-05-27T08:11:35.450Z,3.30
2023-05-27T08:12:35.468Z,3.40
2023-05-27T08:13:35.428Z,3.50
2023-05-27T08:14:35.479Z,3.40
2023-05-27T08:15:35.433Z,3.50
2023-05-27T08:16:35.426Z,3.30
2023-05-27T08:17:35.495Z,3.70
2023-05-27T08:18:35.391Z,3.00
2023-05-27T08:19:35.352Z,3.80
2023-05-27T08:20:35.414Z,3.50
2023-05-27T08:21:35.336Z,3.40
2023-05-27T08:22:35.329Z,3.40
2023-05-27T08:23:35.311Z,3.20
2023-05-27T08:24:35.326Z,3.30
2023-05-27T08:25:35.270Z,3.50
2023-05-27T08:26:35.276Z,3.60
2023-05-27T08:27:35.232Z,4.10
2023-05-27T08:28:35.221Z,3.60
2023-05-27T08:29:35.212Z,3.30
2023-05-27T08:30:35.246Z,3.30
2023-05-27T08:31:35.259Z,3.50
2023-05-27T08:32:35.276Z,3.40
2023-05-27T08:33:35.153Z,3.30
2023-05-27T08:34:35.146Z,3.90
2023-05-27T08:35:35.148Z,3.10
2023-05-27T08:36:35.134Z,3.30
2023-05-27T08:37:35.120Z,3.00
2023-05-27T08:38:35.102Z,3.20
2023-05-27T08:39:35.073Z,3.20
2023-05-27T08:40:35.078Z,3.20
2023-05-27T08:41:35.050Z,3.30
2023-05-27T08:42:35.039Z,3.30
2023-05-27T08:43:35.037Z,3.30
2023-05-27T08:44:35.031Z,3.20
2023-05-27T08:45:35.007Z,3.10
2023-05-27T08:46:35.013Z,3.00
2023-05-27T08:47:35.011Z,3.40
2023-05-27T08:48:34.949Z,3.10
2023-05-27T08:49:34.998Z,3.30
2023-05-27T08:50:34.943Z,3.30
2023-05-27T08:51:34.910Z,3.80
2023-05-27T08:52:34.918Z,3.00
2023-05-27T08:53:34.907Z,3.80
2023-05-27T08:54:34.925Z,3.50
2023-05-27T08:55:34.887Z,3.30
2023-05-27T08:56:34.859Z,2.90
2023-05-27T08:57:34.848Z,3.00
2023-05-27T08:58:34.830Z,3.40
2023-05-27T08:59:34.822Z,3.00
2023-05-27T09:00:34.883Z,3.00
2023-05-27T09:01:34.846Z,3.00
2023-05-27T09:02:34.788Z,3.40
2023-05-27T09:03:34.798Z,3.50
2023-05-27T09:04:34.751Z,3.10
2023-05-27T09:05:34.739Z,3.20
2023-05-27T09:06:34.837Z,2.70
2023-05-27T09:07:34.708Z,3.00
2023-05-27T09:08:49.591Z,3.30
2023-05-27T09:09:35.685Z,2.90
2023-05-27T09:10:34.711Z,2.90
2023-05-27T09:11:34.734Z,2.90
2023-05-27T09:12:34.667Z,2.80
2023-05-27T09:13:34.648Z,2.90
2023-05-27T09:14:34.622Z,2.70
2023-05-27T09:15:34.617Z,3.00
2023-05-27T09:16:34.613Z,2.80
2023-05-27T09:17:34.644Z,2.80
2023-05-27T09:18:34.579Z,3.00
2023-05-27T09:19:34.550Z,3.00
2023-05-27T09:20:34.548Z,3.10
2023-05-27T09:21:34.551Z,2.70
2023-05-27T09:22:34.514Z,2.80
2023-05-27T09:23:34.527Z,3.00
2023-05-27T09:24:34.495Z,2.90
2023-05-27T09:25:34.465Z,3.20
2023-05-27T09:26:34.456Z,2.60
2023-05-27T09:27:34.448Z,2.20
2023-05-27T09:28:34.510Z,2.50
2023-05-27T09:29:34.419Z,2.60
2023-05-27T09:30:34.399Z,3.00
2023-05-27T09:31:34.426Z,2.40
2023-05-27T09:32:34.394Z,2.60
2023-05-27T09:33:34.389Z,2.70
2023-05-27T09:34:34.390Z,2.90
2023-05-27T09:35:34.340Z,2.80
2023-05-27T09:36:34.336Z,2.90
2023-05-27T09:37:34.324Z,3.00
2023-05-27T09:38:34.305Z,3.00
2023-05-27T09:39:34.296Z,2.90
2023-05-27T09:40:34.308Z,2.60
2023-05-27T09:41:34.283Z,2.90
2023-05-27T09:42:34.246Z,2.80
2023-05-27T09:43:34.236Z,2.40
2023-05-27T09:44:34.233Z,2.80
2023-05-27T09:45:34.997Z,2.70
2023-05-27T09:46:34.323Z,4.20
2023-05-27T09:47:34.202Z,2.60
2023-05-27T09:48:34.187Z,2.70
2023-05-27T09:49:34.157Z,2.60
2023-05-27T09:50:34.149Z,3.00
2023-05-27T09:51:34.121Z,4.70
2023-05-27T09:52:36.967Z,3.60
2023-05-27T09:53:35.119Z,2.50
2023-05-27T09:54:34.083Z,2.80
2023-05-27T09:55:34.082Z,2.70
2023-05-27T09:56:34.058Z,2.20
2023-05-27T09:57:34.057Z,2.60
2023-05-27T09:58:34.060Z,2.80
2023-05-27T09:59:34.029Z,2.60
2023-05-27T10:00:34.014Z,2.60
2023-05-27T10:01:34.071Z,2.60
2023-05-27T10:02:34.005Z,2.10
2023-05-27T10:03:34.052Z,2.30
2023-05-27T10:04:33.980Z,2.10
2023-05-27T10:05:33.969Z,2.40
2023-05-27T10:06:33.951Z,2.60
2023-05-27T10:07:36.907Z,2.60
2023-05-27T10:08:35.104Z,2.30
2023-05-27T10:09:33.923Z,2.20
2023-05-27T10:10:33.890Z,2.40
2023-05-27T10:11:33.883Z,2.40
2023-05-27T10:12:33.846Z,2.40
2023-05-27T10:13:33.848Z,2.60
2023-05-27T10:14:33.860Z,2.70
2023-05-27T10:15:33.846Z,2.20
2023-05-27T10:16:33.915Z,2.30
2023-05-27T10:17:33.856Z,2.20
2023-05-27T10:18:33.773Z,2.60
2023-05-27T10:19:33.754Z,2.80
2023-05-27T10:20:33.868Z,2.30
2023-05-27T10:21:33.904Z,2.40
2023-05-27T10:22:33.724Z,2.00
2023-05-27T10:23:33.703Z,2.10
2023-05-27T10:24:33.755Z,2.40
2023-05-27T10:25:33.696Z,2.40
2023-05-27T10:26:33.695Z,2.00
2023-05-27T10:27:33.662Z,1.90
2023-05-27T10:28:33.644Z,2.60
2023-05-27T10:29:33.637Z,2.30
2023-05-27T10:30:33.612Z,2.30
2023-05-27T10:31:33.643Z,2.40
2023-05-27T10:32:33.613Z,2.40
2023-05-27T10:33:33.581Z,2.50
2023-05-27T10:34:33.570Z,2.40
2023-05-27T10:35:33.562Z,2.10
2023-05-27T10:36:33.581Z,2.50
2023-05-27T10:37:33.557Z,2.20
2023-05-27T10:38:33.511Z,2.50
2023-05-27T10:39:33.495Z,2.30
2023-05-27T10:40:33.486Z,2.80
2023-05-27T10:41:33.503Z,2.10
2023-05-27T10:42:33.492Z,2.30
2023-05-27T10:43:33.442Z,2.20
2023-05-27T10:44:33.493Z,2.10
2023-05-27T10:45:33.495Z,2.20
2023-05-27T10:46:33.486Z,2.50
2023-05-27T10:47:33.499Z,2.40
2023-05-27T10:48:33.388Z,2.30
2023-05-27T10:49:33.386Z,2.10
2023-05-27T10:50:33.377Z,2.20
2023-05-27T10:51:33.363Z,2.10
2023-05-27T10:52:33.374Z,2.30
2023-05-27T10:53:33.397Z,2.30
2023-05-27T10:54:33.305Z,2.10
2023-05-27T10:55:33.297Z,2.00
2023-05-27T10:56:33.293Z,2.00
2023-05-27T10:57:33.298Z,2.60
2023-05-27T10:58:33.283Z,2.10
2023-05-27T10:59:33.313Z,2.30
2023-05-27T11:00:33.251Z,2.10
2023-05-27T11:01:33.251Z,2.40
2023-05-27T11:02:33.220Z,2.30
2023-05-27T11:03:33.235Z,2.50
2023-05-27T11:04:33.240Z,2.10
2023-05-27T11:05:33.199Z,2.40
2023-05-27T11:06:33.178Z,2.40
2023-05-27T11:07:33.129Z,2.70
2023-05-27T11:08:33.131Z,2.30
2023-05-27T11:09:33.126Z,2.30
2023-05-27T11:10:33.184Z,2.30
2023-05-27T11:11:33.092Z,2.60
2023-05-27T11:12:33.091Z,2.30
2023-05-27T11:13:33.069Z,2.40
2023-05-27T11:14:33.065Z,2.20
2023-05-27T11:15:33.034Z,2.20
2023-05-27T11:16:33.091Z,2.40
2023-05-27T11:17:33.059Z,2.60
2023-05-27T11:18:32.993Z,2.80
2023-05-27T11:19:32.987Z,2.50
2023-05-27T11:20:33.034Z,2.80
2023-05-27T11:21:32.960Z,2.50
2023-05-27T11:22:32.975Z,2.70
2023-05-27T11:23:32.922Z,2.50
2023-05-27T11:24:32.915Z,2.70
2023-05-27T11:25:32.927Z,2.30
2023-05-27T11:26:32.898Z,2.60
2023-05-27T11:27:32.882Z,2.40
2023-05-27T11:28:32.891Z,2.40
2023-05-27T11:29:32.865Z,2.40
2023-05-27T11:30:32.841Z,2.40
2023-05-27T11:31:32.893Z,2.40
2023-05-27T11:32:32.824Z,2.40
2023-05-27T11:33:36.899Z,2.80
2023-05-27T11:34:32.818Z,2.30
2023-05-27T11:35:32.786Z,2.40
2023-05-27T11:36:33.213Z,2.30
2023-05-27T11:37:32.751Z,1.90
2023-05-27T11:38:32.748Z,2.30
2023-05-27T11:39:32.719Z,2.90
2023-05-27T11:40:32.743Z,2.40
2023-05-27T11:41:32.723Z,2.50
2023-05-27T11:42:32.699Z,2.80
2023-05-27T11:43:32.694Z,2.20
2023-05-27T11:44:32.663Z,2.50
2023-05-27T11:45:32.671Z,2.70
2023-05-27T11:46:32.710Z,2.40
2023-05-27T11:47:32.683Z,2.40
2023-05-27T11:48:32.606Z,2.50
2023-05-27T11:49:32.614Z,2.40
2023-05-27T11:50:32.591Z,2.50
2023-05-27T11:51:32.565Z,2.30
2023-05-27T11:52:32.631Z,2.40
2023-05-27T11:53:32.536Z,2.40
2023-05-27T11:54:33.638Z,3.50
2023-05-27T11:55:32.515Z,3.50
2023-05-27T11:56:32.513Z,2.20
2023-05-27T11:57:32.494Z,2.30
2023-05-27T11:58:32.494Z,2.60
2023-05-27T11:59:32.475Z,2.60
2023-05-27T12:00:32.477Z,2.70
2023-05-27T12:01:32.448Z,2.70
2023-05-27T12:02:32.521Z,2.30
2023-05-27T12:03:32.466Z,2.30
2023-05-27T12:04:32.427Z,2.20
2023-05-27T12:05:34.887Z,2.10
2023-05-27T12:06:32.479Z,2.50
2023-05-27T12:07:32.352Z,2.20
2023-05-27T12:08:32.368Z,2.20
2023-05-27T12:09:32.355Z,2.30
2023-05-27T12:10:32.355Z,2.50
2023-05-27T12:11:32.330Z,2.40
2023-05-27T12:12:32.347Z,2.20
2023-05-27T12:13:32.291Z,2.40
2023-05-27T12:14:32.284Z,2.40
2023-05-27T12:15:32.269Z,2.20
2023-05-27T12:16:32.396Z,2.20
2023-05-27T12:17:32.234Z,2.10
2023-05-27T12:18:32.220Z,2.40
2023-05-27T12:19:32.213Z,2.30
2023-05-27T12:20:32.292Z,2.00
2023-05-27T12:21:32.215Z,2.50
2023-05-27T12:22:32.167Z,2.30
2023-05-27T12:23:32.154Z,2.40
2023-05-27T12:24:32.172Z,2.40
2023-05-27T12:25:32.152Z,2.50
2023-05-27T12:26:32.112Z,2.30
2023-05-27T12:27:32.111Z,2.20
2023-05-27T12:28:32.089Z,2.50
2023-05-27T12:29:32.077Z,2.60
2023-05-27T12:30:32.056Z,2.10
2023-05-27T12:31:32.098Z,2.00
2023-05-27T12:32:32.071Z,2.20
2023-05-27T12:33:32.050Z,2.20
2023-05-27T12:34:32.018Z,2.20
2023-05-27T12:35:32.002Z,2.30
2023-05-27T12:36:31.978Z,2.30
2023-05-27T12:37:31.965Z,2.70
2023-05-27T12:38:31.967Z,2.40
2023-05-27T12:39:31.935Z,2.10
2023-05-27T12:40:31.935Z,2.40
2023-05-27T12:41:31.924Z,2.20
2023-05-27T12:42:31.906Z,2.00
2023-05-27T12:43:31.899Z,2.10
2023-05-27T12:44:31.909Z,2.70
2023-05-27T12:45:31.874Z,2.20
2023-05-27T12:46:31.869Z,2.30
2023-05-27T12:47:31.940Z,2.00
2023-05-27T12:48:31.821Z,2.40
2023-05-27T12:49:31.822Z,2.10
2023-05-27T12:50:31.801Z,2.00
2023-05-27T12:51:31.804Z,2.30
2023-05-27T12:52:31.757Z,2.40
2023-05-27T12:53:31.780Z,1.90
2023-05-27T12:54:31.729Z,2.10
2023-05-27T12:55:31.800Z,2.20
2023-05-27T12:56:31.728Z,2.20
2023-05-27T12:57:31.703Z,2.10
2023-05-27T12:58:31.689Z,1.90
2023-05-27T12:59:31.668Z,2.40
2023-05-27T13:00:31.657Z,2.00
2023-05-27T13:01:31.763Z,2.00
2023-05-27T13:02:31.691Z,2.30
2023-05-27T13:03:31.729Z,1.90
2023-05-27T13:04:31.696Z,2.30
2023-05-27T13:05:31.597Z,2.30
2023-05-27T13:06:31.580Z,2.20
2023-05-27T13:07:31.589Z,2.10
2023-05-27T13:08:31.550Z,2.60
2023-05-27T13:09:31.558Z,2.30
2023-05-27T13:10:31.528Z,2.00
2023-05-27T13:11:31.517Z,2.40
2023-05-27T13:12:31.735Z,2.60
2023-05-27T13:13:31.585Z,2.50
2023-05-27T13:14:31.476Z,2.10
2023-05-27T13:15:31.468Z,2.10
2023-05-27T13:16:31.521Z,2.50
2023-05-27T13:17:31.507Z,2.30
2023-05-27T13:18:31.424Z,2.60